Time;durP1;ratioP1;P1;durP2;ratioP2;P2;SDS_P1;SDS_P2;PMS_P1;PMS_P2;Temp;Humidity;BMP_temperature;BMP_pressure;BME280_temperature;BME280_humidity;BME280_pressure;Samples;Min_cycle;Max_cycle;Signal;HPM_P1;HPM_P2
2023/11/25 00:01:06;;;;;;;4.70;1.73;;;1.40;99.90;;;;;;4882445;29;20191;-83
2023/11/25 00:03:31;;;;;;;7.30;1.90;;;1.30;99.90;;;;;;4883413;29;20611;-83
2023/11/25 00:05:57;;;;;;;8.20;1.57;;;1.40;99.90;;;;;;4881360;29;20187;-83
2023/11/25 00:08:25;;;;;;;4.53;1.23;;;1.40;99.90;;;;;;4900052;29;20314;-84
2023/11/25 00:10:50;;;;;;;5.17;1.90;;;1.30;99.90;;;;;;4881618;29;20622;-85
2023/11/25 00:13:16;;;;;;;4.53;1.17;;;1.30;99.90;;;;;;4883058;29;20234;-84
2023/11/25 00:15:42;;;;;;;11.37;1.63;;;1.30;99.90;;;;;;4883019;29;20635;-83
2023/11/25 00:18:07;;;;;;;6.63;1.50;;;1.30;99.90;;;;;;4882354;29;20223;-83
2023/11/25 00:20:36;;;;;;;5.57;1.43;;;1.30;99.90;;;;;;4882134;29;20718;-84
2023/11/25 00:23:02;;;;;;;4.07;1.77;;;1.30;99.90;;;;;;4875321;29;20218;-83
2023/11/25 00:25:28;;;;;;;9.43;3.03;;;1.30;99.90;;;;;;4881692;29;20265;-83
2023/11/25 00:27:54;;;;;;;7.03;1.97;;;1.30;99.90;;;;;;4881904;29;20278;-83
2023/11/25 00:30:20;;;;;;;7.33;1.73;;;1.20;99.90;;;;;;4881384;29;20194;-82
2023/11/25 00:32:46;;;;;;;7.63;2.10;;;1.20;99.90;;;;;;4882580;29;20284;-83
2023/11/25 00:35:12;;;;;;;10.70;3.33;;;1.10;99.90;;;;;;4882719;29;20487;-82
2023/11/25 00:37:41;;;;;;;10.40;2.23;;;1.10;99.90;;;;;;4899374;29;20293;-84
2023/11/25 00:40:10;;;;;;;7.00;2.10;;;1.20;99.90;;;;;;4882019;29;20244;-83
2023/11/25 00:42:40;;;;;;;8.23;2.43;;;1.20;99.90;;;;;;4882119;29;20642;-81
2023/11/25 00:45:07;;;;;;;6.63;3.00;;;1.10;99.90;;;;;;4881759;29;20567;-83
2023/11/25 00:47:34;;;;;;;8.50;3.17;;;1.10;99.90;;;;;;4882637;29;20186;-83
2023/11/25 00:50:01;;;;;;;9.40;2.10;;;1.10;99.90;;;;;;4898800;29;20183;-84
2023/11/25 00:52:27;;;;;;;6.63;2.23;;;1.10;99.90;;;;;;4898837;29;20687;-83
2023/11/25 00:54:53;;;;;;;8.20;2.33;;;1.10;99.90;;;;;;4882284;29;20697;-83
2023/11/25 00:57:19;;;;;;;7.40;2.60;;;1.00;99.90;;;;;;4897803;29;20225;-84
2023/11/25 00:59:44;;;;;;;4.77;2.23;;;1.00;99.90;;;;;;4881576;29;20194;-83
2023/11/25 01:02:10;;;;;;;6.37;1.90;;;1.00;99.90;;;;;;4881367;29;20202;-83
2023/11/25 01:04:40;;;;;;;11.93;3.33;;;1.00;99.90;;;;;;4898318;29;20195;-84
2023/11/25 01:07:07;;;;;;;7.70;2.43;;;1.00;99.90;;;;;;4879042;29;20766;-86
2023/11/25 01:09:34;;;;;;;11.77;4.20;;;1.00;99.90;;;;;;4873572;29;20192;-83
2023/11/25 01:12:00;;;;;;;6.30;1.70;;;1.00;99.90;;;;;;4879844;29;20646;-82
2023/11/25 01:14:27;;;;;;;5.60;1.90;;;1.00;99.90;;;;;;4878917;29;20192;-83
2023/11/25 01:16:53;;;;;;;5.83;2.37;;;0.90;99.90;;;;;;4878976;29;20224;-83
2023/11/25 01:19:18;;;;;;;12.37;3.67;;;0.90;99.90;;;;;;4878963;29;20235;-82
2023/11/25 01:21:44;;;;;;;9.30;5.23;;;0.80;99.90;;;;;;4876432;29;20283;-83
2023/11/25 01:24:11;;;;;;;11.10;4.53;;;0.80;99.90;;;;;;4880014;29;20221;-83
2023/11/25 01:26:40;;;;;;;5.43;2.20;;;0.90;99.90;;;;;;4879474;29;20188;-82
2023/11/25 01:29:06;;;;;;;7.13;1.47;;;0.80;99.90;;;;;;4870700;29;20311;-83
2023/11/25 01:31:33;;;;;;;9.77;2.80;;;0.80;99.90;;;;;;4857355;29;20192;-84
2023/11/25 01:33:59;;;;;;;4.87;1.90;;;0.80;99.90;;;;;;4869919;29;20191;-83
2023/11/25 01:36:28;;;;;;;7.20;2.00;;;0.70;99.90;;;;;;4879553;29;20212;-83
2023/11/25 01:38:54;;;;;;;8.90;2.80;;;0.70;99.90;;;;;;4871798;29;20642;-82
2023/11/25 01:41:20;;;;;;;6.87;2.40;;;0.70;99.90;;;;;;4863624;29;20291;-82
2023/11/25 01:43:46;;;;;;;9.17;1.93;;;0.70;99.90;;;;;;4879886;29;20187;-83
2023/11/25 01:46:31;;;;;;;7.43;2.20;;;0.70;99.90;;;;;;4878474;29;20505;-83
2023/11/25 01:48:57;;;;;;;2.23;1.07;;;0.70;99.90;;;;;;4878472;29;20229;-83
2023/11/25 01:51:25;;;;;;;2.83;1.10;;;0.60;99.90;;;;;;4865212;29;20241;-82
2023/11/25 01:53:51;;;;;;;6.53;1.00;;;0.60;99.90;;;;;;4875555;29;20198;-83
2023/11/25 01:56:17;;;;;;;6.93;1.30;;;0.60;99.90;;;;;;4875240;29;20217;-83
2023/11/25 01:58:43;;;;;;;9.73;1.77;;;0.70;99.90;;;;;;4875025;29;20604;-84
2023/11/25 02:01:09;;;;;;;5.53;1.27;;;0.60;99.90;;;;;;4875109;29;20640;-84
2023/11/25 02:03:36;;;;;;;6.20;1.20;;;0.60;99.90;;;;;;4878374;29;20215;-83
2023/11/25 02:06:01;;;;;;;6.50;1.40;;;0.60;99.90;;;;;;4879278;29;20298;-83
2023/11/25 02:08:27;;;;;;;5.70;1.13;;;0.60;99.90;;;;;;4892452;29;20627;-84
2023/11/25 02:10:53;;;;;;;12.40;1.30;;;0.50;99.90;;;;;;4897486;29;20183;-83
2023/11/25 02:13:19;;;;;;;6.67;1.47;;;0.50;99.90;;;;;;4873911;29;20194;-83
2023/11/25 02:15:45;;;;;;;7.13;1.23;;;0.50;99.90;;;;;;5275423;23;20251;-83
2023/11/25 02:18:11;;;;;;;6.37;1.30;;;0.50;99.90;;;;;;4910498;29;20200;-83
2023/11/25 02:20:41;;;;;;;4.30;0.83;;;0.50;99.90;;;;;;4914049;29;20198;-83
2023/11/25 02:23:17;;;;;;;4.53;1.40;;;0.50;99.90;;;;;;4921159;29;20198;-84
2023/11/25 02:25:50;;;;;;;4.70;1.20;;;0.60;99.90;;;;;;4918593;29;20189;-83
2023/11/25 02:28:19;;;;;;;8.87;1.50;;;0.50;99.90;;;;;;4916616;29;20663;-83
2023/11/25 02:30:48;;;;;;;6.00;1.03;;;0.50;99.90;;;;;;4919674;29;20613;-82
2023/11/25 02:33:14;;;;;;;4.00;0.90;;;0.50;99.90;;;;;;4919003;29;20229;-83
2023/11/25 02:35:43;;;;;;;3.90;1.07;;;0.50;99.90;;;;;;4918784;29;20190;-82
2023/11/25 02:38:10;;;;;;;1.53;0.97;;;0.50;99.90;;;;;;4920660;29;20707;-83
2023/11/25 02:40:37;;;;;;;2.30;0.77;;;0.50;99.90;;;;;;4920636;29;20537;-83
2023/11/25 02:43:04;;;;;;;3.70;1.17;;;0.50;99.90;;;;;;4920293;29;20706;-82
2023/11/25 02:45:29;;;;;;;3.50;1.10;;;0.50;99.90;;;;;;4917532;29;20186;-83
2023/11/25 02:47:55;;;;;;;5.47;0.90;;;0.50;99.90;;;;;;4916968;29;20648;-82
2023/11/25 02:50:21;;;;;;;5.17;1.20;;;0.50;99.90;;;;;;4920136;29;20190;-83
2023/11/25 02:52:48;;;;;;;6.67;1.10;;;0.50;99.90;;;;;;4918473;29;20596;-82
2023/11/25 02:55:14;;;;;;;10.07;1.33;;;0.50;99.90;;;;;;4918801;29;20201;-82
2023/11/25 02:57:44;;;;;;;10.60;1.13;;;0.50;99.90;;;;;;4917945;29;20218;-82
2023/11/25 03:00:17;;;;;;;4.93;1.07;;;0.50;99.90;;;;;;4920182;29;20183;-83
2023/11/25 03:02:43;;;;;;;6.70;1.20;;;0.40;99.90;;;;;;4917662;29;20734;-82
2023/11/25 03:05:10;;;;;;;5.07;1.13;;;0.50;99.90;;;;;;4918111;29;20289;-82
2023/11/25 03:07:38;;;;;;;7.40;1.30;;;0.40;99.90;;;;;;4918064;29;20194;-82
2023/11/25 03:10:04;;;;;;;4.37;1.00;;;0.40;99.90;;;;;;4912600;29;20266;-83
2023/11/25 03:12:30;;;;;;;4.40;0.97;;;0.40;99.90;;;;;;4918261;29;20529;-82
2023/11/25 03:14:56;;;;;;;10.27;1.63;;;0.40;99.90;;;;;;4918843;29;20210;-83
2023/11/25 03:17:22;;;;;;;8.20;1.10;;;0.40;99.90;;;;;;4906506;29;20235;-83
2023/11/25 03:19:48;;;;;;;3.63;1.00;;;0.40;99.90;;;;;;4902870;29;20306;-83
2023/11/25 03:22:14;;;;;;;5.63;1.07;;;0.40;99.90;;;;;;4899637;29;20187;-83
2023/11/25 03:24:41;;;;;;;4.30;0.80;;;0.50;99.90;;;;;;4900917;29;20347;-83
2023/11/25 03:27:07;;;;;;;7.90;1.10;;;0.40;99.90;;;;;;4901951;29;20209;-82
2023/11/25 03:29:33;;;;;;;4.50;1.30;;;0.50;99.90;;;;;;4902735;29;20206;-83
2023/11/25 03:32:00;;;;;;;5.33;1.17;;;0.50;99.90;;;;;;4900408;29;20193;-83
2023/11/25 03:34:26;;;;;;;3.70;0.90;;;0.50;99.90;;;;;;4902628;29;20198;-82
2023/11/25 03:36:52;;;;;;;6.10;1.23;;;0.50;99.90;;;;;;4901777;29;20214;-83
2023/11/25 03:39:19;;;;;;;6.87;1.17;;;0.50;99.90;;;;;;4902521;29;20190;-82
2023/11/25 03:41:45;;;;;;;3.13;1.00;;;0.50;99.90;;;;;;4918445;29;20187;-83
2023/11/25 03:44:11;;;;;;;6.50;1.27;;;0.60;99.90;;;;;;4919549;29;20197;-83
2023/11/25 03:46:39;;;;;;;8.17;1.50;;;0.60;99.90;;;;;;4915607;29;20269;-82
2023/11/25 03:49:05;;;;;;;7.77;1.37;;;0.60;99.90;;;;;;4912099;29;20221;-82
2023/11/25 03:51:36;;;;;;;7.70;1.30;;;0.60;99.90;;;;;;4918709;29;20221;-83
2023/11/25 03:54:02;;;;;;;3.90;1.60;;;0.60;99.90;;;;;;4894726;29;20219;-83
2023/11/25 03:56:28;;;;;;;7.07;1.70;;;0.70;99.90;;;;;;4901342;29;20708;-82
2023/11/25 03:58:54;;;;;;;4.07;1.30;;;0.70;99.90;;;;;;4902206;29;20224;-83
2023/11/25 04:01:20;;;;;;;7.47;0.90;;;0.70;99.90;;;;;;4901866;29;20189;-83
2023/11/25 04:03:45;;;;;;;10.70;1.20;;;0.70;99.90;;;;;;4902157;29;20648;-83
2023/11/25 04:06:13;;;;;;;5.30;1.40;;;0.80;99.90;;;;;;4901670;29;20655;-83
2023/11/25 04:08:39;;;;;;;5.30;1.43;;;0.80;99.90;;;;;;4918264;29;20197;-83
2023/11/25 04:11:06;;;;;;;5.90;1.30;;;0.80;99.90;;;;;;4918328;29;20186;-83
2023/11/25 04:13:31;;;;;;;5.87;1.27;;;0.80;99.90;;;;;;4919207;29;20191;-83
2023/11/25 04:15:59;;;;;;;3.73;1.20;;;0.80;99.90;;;;;;4902879;29;20564;-82
2023/11/25 04:18:26;;;;;;;5.10;1.10;;;0.90;99.90;;;;;;4917836;29;20198;-83
2023/11/25 04:20:52;;;;;;;7.23;1.40;;;0.90;99.90;;;;;;4937977;29;20232;-83
2023/11/25 04:23:18;;;;;;;7.33;1.53;;;0.90;99.90;;;;;;4920613;29;20225;-83
2023/11/25 04:25:44;;;;;;;6.33;1.70;;;1.00;99.90;;;;;;4920127;29;20246;-82
2023/11/25 04:28:14;;;;;;;7.63;1.23;;;1.00;99.90;;;;;;4916939;29;20592;-83
2023/11/25 04:30:40;;;;;;;5.03;1.57;;;1.00;99.90;;;;;;4918913;29;20190;-83
2023/11/25 04:33:09;;;;;;;5.87;1.53;;;1.10;99.90;;;;;;4920217;29;20317;-83
2023/11/25 04:35:36;;;;;;;7.57;1.37;;;1.10;99.90;;;;;;4920473;29;20637;-83
2023/11/25 04:38:02;;;;;;;6.47;1.30;;;1.10;99.90;;;;;;4918814;29;20245;-83
2023/11/25 04:40:28;;;;;;;5.03;1.20;;;1.10;99.90;;;;;;4920510;29;20558;-82
2023/11/25 04:42:54;;;;;;;9.47;1.40;;;1.10;99.90;;;;;;4937185;29;20189;-83
2023/11/25 04:45:20;;;;;;;7.23;1.60;;;1.20;99.90;;;;;;4936706;29;20594;-84
2023/11/25 04:47:50;;;;;;;7.70;1.40;;;1.30;99.90;;;;;;4934327;29;20952;-83
2023/11/25 04:50:17;;;;;;;8.80;1.50;;;1.30;99.90;;;;;;4920240;29;20200;-83
2023/11/25 04:52:43;;;;;;;4.33;1.40;;;1.30;99.90;;;;;;4936974;29;20282;-83
2023/11/25 04:55:11;;;;;;;7.00;1.33;;;1.30;99.90;;;;;;4920510;29;20720;-84
2023/11/25 04:57:37;;;;;;;8.00;1.20;;;1.30;99.90;;;;;;4918085;29;20225;-84
2023/11/25 05:00:08;;;;;;;9.17;2.07;;;1.30;99.90;;;;;;4935004;29;20643;-83
2023/11/25 05:02:37;;;;;;;8.67;1.80;;;1.30;99.90;;;;;;4918864;29;20280;-83
2023/11/25 05:05:04;;;;;;;7.53;1.63;;;1.30;99.90;;;;;;4912194;29;20613;-83
2023/11/25 05:07:30;;;;;;;7.57;1.70;;;1.40;99.90;;;;;;4918001;29;20198;-83
2023/11/25 05:09:56;;;;;;;9.03;1.60;;;1.40;99.90;;;;;;4936921;29;20186;-83
2023/11/25 05:12:23;;;;;;;5.63;1.50;;;1.40;99.90;;;;;;4918172;29;20186;-84
2023/11/25 05:14:50;;;;;;;6.33;1.50;;;1.40;99.90;;;;;;4936369;29;20182;-84
2023/11/25 05:17:15;;;;;;;7.33;1.40;;;1.40;99.90;;;;;;4915873;29;20246;-83
2023/11/25 05:19:41;;;;;;;5.63;1.67;;;1.40;99.90;;;;;;4916290;29;20262;-82
2023/11/25 05:22:08;;;;;;;7.30;1.60;;;1.40;99.90;;;;;;4915936;29;20221;-84
2023/11/25 05:24:34;;;;;;;6.70;1.50;;;1.30;99.90;;;;;;4915601;29;20638;-84
2023/11/25 05:27:00;;;;;;;13.67;2.10;;;1.30;99.90;;;;;;4917557;29;20213;-84
2023/11/25 05:29:26;;;;;;;10.83;2.47;;;1.30;99.90;;;;;;4915653;29;20197;-84
2023/11/25 05:31:52;;;;;;;7.70;1.23;;;1.30;99.90;;;;;;4914977;29;20187;-83
2023/11/25 05:34:17;;;;;;;10.07;1.50;;;1.30;99.90;;;;;;4917553;29;20634;-84
2023/11/25 05:36:43;;;;;;;12.70;1.93;;;1.30;99.90;;;;;;4916050;29;20215;-85
2023/11/25 05:39:13;;;;;;;6.43;1.43;;;1.30;99.90;;;;;;4914295;29;20640;-83
2023/11/25 05:41:43;;;;;;;11.80;1.83;;;1.30;99.90;;;;;;4911889;29;20197;-84
2023/11/25 05:44:09;;;;;;;9.93;1.50;;;1.30;99.90;;;;;;4916726;29;20649;-84
2023/11/25 05:46:36;;;;;;;5.23;1.50;;;1.30;99.90;;;;;;4913899;29;20221;-82
2023/11/25 05:49:04;;;;;;;11.13;1.90;;;1.30;99.90;;;;;;4907474;29;20261;-85
2023/11/25 05:51:44;;;;;;;9.40;1.53;;;1.30;99.90;;;;;;4915320;29;20198;-83
2023/11/25 05:54:13;;;;;;;10.63;1.60;;;1.30;99.90;;;;;;4908150;29;20250;-83
2023/11/25 05:56:45;;;;;;;11.43;1.93;;;1.30;99.90;;;;;;4913300;29;20301;-84
2023/11/25 05:59:11;;;;;;;5.33;1.27;;;1.30;99.90;;;;;;4909014;29;20194;-83
2023/11/25 06:01:42;;;;;;;7.43;1.33;;;1.30;99.90;;;;;;4915481;29;20236;-85
2023/11/25 06:04:08;;;;;;;15.03;1.83;;;1.30;99.90;;;;;;4906584;29;20218;-84
2023/11/25 06:06:34;;;;;;;11.10;1.40;;;1.30;99.90;;;;;;4916031;29;20232;-85
2023/11/25 06:09:00;;;;;;;9.17;2.03;;;1.40;99.90;;;;;;4912534;29;20246;-83
2023/11/25 06:11:28;;;;;;;9.57;2.00;;;1.40;99.90;;;;;;4911843;29;20191;-84
2023/11/25 06:13:57;;;;;;;8.57;1.87;;;1.40;99.90;;;;;;4915623;29;20245;-84
2023/11/25 06:16:24;;;;;;;6.13;1.93;;;1.40;99.90;;;;;;4911681;29;20614;-84
2023/11/25 06:18:50;;;;;;;9.67;2.00;;;1.40;99.90;;;;;;4909368;29;20270;-84
2023/11/25 06:21:16;;;;;;;9.97;2.03;;;1.40;99.90;;;;;;4909252;29;20206;-83
2023/11/25 06:23:45;;;;;;;10.40;1.60;;;1.40;99.90;;;;;;4909633;29;20186;-84
2023/11/25 06:26:12;;;;;;;10.70;1.73;;;1.50;99.90;;;;;;4909697;29;20193;-83
2023/11/25 06:28:42;;;;;;;10.10;1.80;;;1.50;99.90;;;;;;4909419;29;20250;-83
2023/11/25 06:31:09;;;;;;;10.97;1.97;;;1.50;99.90;;;;;;4907152;29;20287;-84
2023/11/25 06:33:35;;;;;;;6.50;1.80;;;1.50;99.90;;;;;;4912226;29;20333;-84
2023/11/25 06:36:01;;;;;;;12.17;1.70;;;1.50;99.90;;;;;;4911677;29;20627;-83
2023/11/25 06:38:27;;;;;;;10.97;2.00;;;1.60;99.90;;;;;;4909730;29;20198;-83
2023/11/25 06:40:53;;;;;;;15.07;2.07;;;1.70;99.90;;;;;;4914942;29;20202;-82
2023/11/25 06:43:18;;;;;;;9.67;1.80;;;1.70;99.90;;;;;;4912644;29;20525;-84
2023/11/25 06:45:45;;;;;;;12.40;1.53;;;1.70;99.90;;;;;;4914603;29;20285;-83
2023/11/25 06:48:11;;;;;;;9.83;2.33;;;1.70;99.90;;;;;;4910851;29;20195;-85
2023/11/25 06:50:39;;;;;;;8.30;2.00;;;1.70;99.90;;;;;;4912014;29;20519;-84
2023/11/25 06:53:05;;;;;;;9.97;2.67;;;1.70;99.90;;;;;;4914386;29;20524;-84
2023/11/25 06:55:32;;;;;;;10.17;2.53;;;1.70;99.90;;;;;;4915333;29;20334;-83
2023/11/25 06:57:58;;;;;;;7.67;2.07;;;1.80;99.90;;;;;;4915373;29;20258;-83
2023/11/25 07:00:24;;;;;;;8.60;2.27;;;1.80;99.90;;;;;;4914916;29;20640;-84
2023/11/25 07:02:50;;;;;;;10.63;1.90;;;1.80;99.90;;;;;;4914989;29;20191;-84
2023/11/25 07:05:16;;;;;;;7.67;2.43;;;1.80;99.90;;;;;;4915757;29;20250;-83
2023/11/25 07:07:42;;;;;;;11.77;2.63;;;1.90;99.90;;;;;;4917381;29;20281;-84
2023/11/25 07:10:13;;;;;;;8.47;1.77;;;1.90;99.90;;;;;;4917417;29;20194;-85
2023/11/25 07:12:40;;;;;;;8.20;1.87;;;1.90;99.90;;;;;;4914790;29;20245;-84
2023/11/25 07:15:07;;;;;;;12.37;1.73;;;2.00;99.90;;;;;;4919952;29;20194;-84
2023/11/25 07:17:36;;;;;;;9.10;1.97;;;2.00;99.90;;;;;;4917835;29;20273;-84
2023/11/25 07:20:05;;;;;;;7.83;1.60;;;2.10;99.90;;;;;;4920002;29;20183;-84
2023/11/25 07:22:32;;;;;;;3.67;1.10;;;2.10;99.90;;;;;;4917371;29;20199;-83
2023/11/25 07:24:57;;;;;;;8.73;1.97;;;2.10;99.90;;;;;;4919374;29;20680;-84
2023/11/25 07:27:23;;;;;;;16.17;2.27;;;2.20;99.90;;;;;;4918487;29;20277;-84
2023/11/25 07:29:49;;;;;;;11.43;2.10;;;2.20;99.90;;;;;;4918375;29;20210;-84
2023/11/25 07:32:15;;;;;;;6.77;1.47;;;2.10;99.90;;;;;;4916229;29;20198;-85
2023/11/25 07:34:41;;;;;;;11.40;1.77;;;2.10;99.90;;;;;;4918408;29;20285;-84
2023/11/25 07:37:07;;;;;;;11.03;1.70;;;2.10;99.90;;;;;;4918311;29;20559;-85
2023/11/25 07:39:34;;;;;;;7.87;1.50;;;2.10;99.90;;;;;;4919394;29;20309;-84
2023/11/25 07:42:01;;;;;;;7.10;1.57;;;2.10;99.90;;;;;;4917520;29;20194;-86
2023/11/25 07:44:30;;;;;;;10.83;2.23;;;2.10;99.90;;;;;;4917197;29;20626;-84
2023/11/25 07:46:57;;;;;;;9.07;1.70;;;2.10;99.90;;;;;;4917894;29;20194;-85
2023/11/25 07:49:23;;;;;;;7.63;1.43;;;2.00;99.90;;;;;;4917907;29;20630;-85
2023/11/25 07:51:49;;;;;;;6.03;1.43;;;1.90;99.90;;;;;;4917165;29;20281;-86
2023/11/25 07:54:18;;;;;;;8.90;1.67;;;1.90;99.90;;;;;;4916756;29;20637;-84
2023/11/25 07:56:44;;;;;;;7.33;1.23;;;1.90;99.90;;;;;;4919196;29;20712;-84
2023/11/25 07:59:10;;;;;;;7.47;1.50;;;1.90;99.90;;;;;;4918348;29;20648;-84
2023/11/25 08:01:36;;;;;;;6.77;1.40;;;1.80;99.90;;;;;;4913082;29;20190;-85
2023/11/25 08:04:03;;;;;;;5.20;1.17;;;1.80;99.90;;;;;;4917613;29;20206;-85
2023/11/25 08:06:29;;;;;;;7.13;1.40;;;1.70;99.90;;;;;;4914205;29;20786;-84
2023/11/25 08:08:55;;;;;;;5.77;1.50;;;1.70;99.90;;;;;;4912570;29;20677;-84
2023/11/25 08:11:25;;;;;;;5.03;1.50;;;1.70;99.90;;;;;;4911561;29;20183;-84
2023/11/25 08:13:51;;;;;;;7.83;1.70;;;1.70;99.90;;;;;;4910017;29;20536;-84
2023/11/25 08:16:18;;;;;;;6.13;1.53;;;1.80;99.90;;;;;;4923214;29;20234;-85
2023/11/25 08:18:47;;;;;;;7.93;1.63;;;1.80;99.90;;;;;;4913539;29;20213;-83
2023/11/25 08:21:14;;;;;;;4.77;1.63;;;1.80;99.90;;;;;;4920523;29;20297;-83
2023/11/25 08:23:41;;;;;;;6.97;1.77;;;1.90;99.90;;;;;;4920211;29;20200;-84
2023/11/25 08:26:20;;;;;;;7.73;1.70;;;1.90;99.90;;;;;;4913358;29;20244;-83
2023/11/25 08:28:47;;;;;;;10.03;1.93;;;1.90;99.90;;;;;;4918456;29;20234;-84
2023/11/25 08:31:13;;;;;;;5.77;2.30;;;1.90;99.90;;;;;;4919874;29;20193;-85
2023/11/25 08:33:40;;;;;;;13.37;2.77;;;1.90;99.90;;;;;;4937777;29;20185;-84
2023/11/25 08:36:07;;;;;;;8.87;2.80;;;2.00;99.90;;;;;;4920311;29;20189;-85
2023/11/25 08:38:32;;;;;;;8.70;2.67;;;2.00;99.90;;;;;;4919577;29;20201;-85
2023/11/25 08:40:58;;;;;;;9.00;2.57;;;2.10;99.90;;;;;;4937478;29;20186;-86
2023/11/25 08:43:26;;;;;;;11.00;3.37;;;2.10;99.90;;;;;;4920687;29;20197;-84
2023/11/25 08:45:53;;;;;;;9.03;3.47;;;2.10;99.90;;;;;;4936462;29;20178;-85
2023/11/25 08:48:20;;;;;;;7.93;2.80;;;2.10;99.90;;;;;;4920390;29;20197;-84
2023/11/25 08:50:45;;;;;;;10.57;2.93;;;2.20;99.90;;;;;;4919319;29;20190;-85
2023/11/25 08:53:11;;;;;;;8.53;2.87;;;2.30;99.90;;;;;;4920457;29;20204;-86
2023/11/25 08:55:38;;;;;;;11.23;3.50;;;2.30;99.90;;;;;;4920405;29;20656;-85
2023/11/25 08:58:07;;;;;;;14.10;3.63;;;2.30;99.90;;;;;;4936331;29;20213;-85
2023/11/25 09:00:33;;;;;;;8.60;3.70;;;2.30;99.90;;;;;;4937057;29;20181;-83
2023/11/25 09:02:58;;;;;;;11.13;3.23;;;2.30;99.90;;;;;;4920018;29;20201;-84
2023/11/25 09:05:25;;;;;;;10.93;3.03;;;2.30;99.90;;;;;;4920252;29;20190;-84
2023/11/25 09:07:55;;;;;;;6.43;2.63;;;2.50;99.90;;;;;;4920017;29;20198;-86
2023/11/25 09:10:22;;;;;;;9.20;2.97;;;2.50;99.90;;;;;;4910399;29;20256;-82
2023/11/25 09:12:52;;;;;;;12.77;3.10;;;2.50;99.90;;;;;;4915315;29;20194;-84
2023/11/25 09:15:18;;;;;;;8.00;2.57;;;2.60;99.90;;;;;;4911865;29;20178;-83
2023/11/25 09:17:44;;;;;;;12.70;2.87;;;2.60;99.90;;;;;;4919215;29;20616;-84
2023/11/25 09:20:13;;;;;;;8.93;2.33;;;2.70;99.90;;;;;;4917859;29;20186;-84
2023/11/25 09:22:41;;;;;;;8.73;2.63;;;2.80;99.90;;;;;;4933342;29;20604;-83
2023/11/25 09:25:11;;;;;;;9.57;2.50;;;2.80;99.90;;;;;;4917608;29;20193;-83
2023/11/25 09:27:41;;;;;;;6.23;2.40;;;2.90;99.90;;;;;;4919013;29;20186;-86
2023/11/25 09:30:11;;;;;;;5.00;2.00;;;3.00;99.90;;;;;;4914066;29;20185;-84
2023/11/25 09:32:37;;;;;;;6.47;2.30;;;3.00;99.90;;;;;;4916546;29;20190;-83
2023/11/25 09:35:04;;;;;;;7.73;2.60;;;3.00;99.90;;;;;;4911424;29;20523;-83
2023/11/25 09:37:30;;;;;;;8.43;3.20;;;3.10;99.90;;;;;;4916424;29;20214;-83
2023/11/25 09:39:56;;;;;;;14.80;2.77;;;3.20;99.90;;;;;;4910632;29;20185;-83
2023/11/25 09:42:21;;;;;;;6.67;1.90;;;3.10;99.90;;;;;;4933643;29;20208;-84
2023/11/25 09:44:49;;;;;;;10.87;2.77;;;3.20;99.90;;;;;;4922275;29;20589;-83
2023/11/25 09:47:15;;;;;;;5.77;2.00;;;3.20;99.90;;;;;;4913458;29;20177;-85
2023/11/25 09:49:41;;;;;;;7.37;2.20;;;3.20;99.90;;;;;;4907101;29;20277;-85
2023/11/25 09:52:09;;;;;;;10.90;2.50;;;3.20;99.90;;;;;;4928026;29;20280;-84
2023/11/25 09:54:35;;;;;;;8.20;2.07;;;3.20;99.90;;;;;;4910737;29;20222;-84
2023/11/25 09:57:03;;;;;;;6.80;2.20;;;3.30;99.90;;;;;;4933584;29;20210;-84
2023/11/25 09:59:30;;;;;;;9.30;2.77;;;3.30;99.90;;;;;;4917438;29;20189;-83
2023/11/25 10:01:57;;;;;;;10.20;2.70;;;3.30;99.90;;;;;;4916810;29;20197;-84
2023/11/25 10:04:27;;;;;;;8.63;2.60;;;3.40;99.90;;;;;;4919018;29;20244;-85
2023/11/25 10:06:54;;;;;;;6.50;2.00;;;3.30;99.90;;;;;;4918684;29;20186;-85
2023/11/25 10:09:21;;;;;;;5.90;1.90;;;3.40;99.90;;;;;;4918808;29;20249;-85
2023/11/25 10:11:47;;;;;;;8.60;2.00;;;3.40;99.90;;;;;;4918868;29;20229;-84
2023/11/25 10:14:14;;;;;;;7.33;2.10;;;3.50;99.90;;;;;;4918871;29;20197;-86
2023/11/25 10:16:46;;;;;;;12.70;2.50;;;3.50;99.90;;;;;;4918729;29;20237;-84
2023/11/25 10:19:23;;;;;;;6.57;3.30;;;3.50;99.90;;;;;;4918965;29;20199;-84
2023/11/25 10:21:50;;;;;;;9.30;2.93;;;3.60;99.90;;;;;;4935887;29;20189;-84
2023/11/25 10:24:22;;;;;;;6.47;2.20;;;3.60;99.90;;;;;;4918533;29;20288;-85
2023/11/25 10:26:52;;;;;;;6.50;2.20;;;3.60;99.90;;;;;;4918813;29;20190;-86
2023/11/25 10:29:21;;;;;;;7.67;2.30;;;3.60;99.90;;;;;;4918575;29;20716;-84
2023/11/25 10:31:56;;;;;;;5.43;2.20;;;3.60;99.90;;;;;;4935290;29;20189;-84
2023/11/25 10:34:24;;;;;;;7.83;2.40;;;3.60;99.90;;;;;;4918599;29;20189;-84
2023/11/25 10:36:50;;;;;;;10.33;2.00;;;3.60;99.90;;;;;;4918124;29;20265;-85
2023/11/25 10:39:17;;;;;;;11.37;2.23;;;3.60;99.90;;;;;;4918319;29;20238;-84
2023/11/25 10:41:50;;;;;;;9.53;2.00;;;3.60;99.90;;;;;;4913137;29;20213;-85
2023/11/25 10:44:17;;;;;;;7.57;2.03;;;3.60;99.90;;;;;;4922578;29;20532;-85
2023/11/25 10:46:44;;;;;;;6.73;1.93;;;3.70;99.90;;;;;;4915560;29;20656;-83
2023/11/25 10:49:09;;;;;;;6.43;2.23;;;3.70;99.90;;;;;;4921714;29;20636;-83
2023/11/25 10:51:39;;;;;;;3.23;1.67;;;3.70;99.90;;;;;;4930952;29;20194;-86
2023/11/25 10:54:07;;;;;;;8.07;1.80;;;3.70;99.90;;;;;;4914545;29;20186;-85
2023/11/25 10:56:35;;;;;;;6.57;1.80;;;3.70;99.90;;;;;;4920719;29;20233;-84
2023/11/25 10:59:01;;;;;;;5.47;1.70;;;3.80;99.90;;;;;;4929133;29;20261;-85
2023/11/25 11:01:30;;;;;;;4.97;1.60;;;3.90;99.90;;;;;;4918200;29;20185;-85
2023/11/25 11:04:07;;;;;;;7.77;1.93;;;3.80;99.90;;;;;;4921436;29;20189;-84
2023/11/25 11:06:54;;;;;;;2.43;1.50;;;3.80;99.90;;;;;;4922377;29;20185;-86
2023/11/25 11:09:25;;;;;;;11.50;2.20;;;3.90;99.90;;;;;;4912675;29;20182;-85
2023/11/25 11:11:56;;;;;;;4.50;1.40;;;3.80;99.90;;;;;;4914478;29;20196;-85
2023/11/25 11:14:22;;;;;;;2.27;1.30;;;3.80;99.90;;;;;;4919666;29;20213;-85
2023/11/25 11:17:09;;;;;;;4.87;1.77;;;3.80;99.90;;;;;;4914218;29;20246;-86
2023/11/25 11:19:46;;;;;;;4.50;1.83;;;3.80;99.90;;;;;;4916637;29;20225;-85
2023/11/25 11:22:13;;;;;;;4.03;1.80;;;3.80;99.90;;;;;;4907642;29;20197;-85
2023/11/25 11:24:50;;;;;;;6.90;1.67;;;3.80;99.90;;;;;;4921812;29;20197;-86
2023/11/25 11:27:31;;;;;;;3.10;1.27;;;3.70;99.90;;;;;;4911635;29;20337;-84
2023/11/25 11:30:46;;;;;;;3.70;2.00;;;3.80;99.90;;;;;;4916728;29;20193;-85
2023/11/25 11:33:14;;;;;;;2.63;1.20;;;3.80;99.90;;;;;;4862284;29;20188;-83
2023/11/25 11:35:40;;;;;;;2.10;1.00;;;3.70;99.90;;;;;;4909980;29;20248;-86
2023/11/25 11:38:28;;;;;;;2.17;1.20;;;3.70;99.90;;;;;;4922048;29;20221;-85
2023/11/25 11:41:06;;;;;;;1.87;1.23;;;3.80;99.90;;;;;;4920895;29;20682;-85
2023/11/25 11:43:32;;;;;;;1.73;1.03;;;3.80;99.90;;;;;;4938776;29;20186;-88
2023/11/25 11:45:58;;;;;;;3.53;1.00;;;3.70;99.90;;;;;;4921741;29;20197;-87
2023/11/25 11:48:30;;;;;;;4.17;1.60;;;3.80;99.90;;;;;;4921889;29;20193;-82
2023/11/25 11:50:55;;;;;;;4.80;1.73;;;3.80;99.90;;;;;;4921664;29;20238;-86
2023/11/25 11:53:23;;;;;;;4.90;2.37;;;3.80;99.90;;;;;;4920330;29;20198;-85
2023/11/25 11:55:52;;;;;;;4.97;1.80;;;3.80;99.90;;;;;;4938343;29;20212;-84
2023/11/25 11:58:25;;;;;;;5.10;1.67;;;3.80;99.90;;;;;;4938441;29;20206;-87
2023/11/25 12:01:00;;;;;;;3.03;1.60;;;3.80;99.90;;;;;;4921319;29;20622;-84
2023/11/25 12:03:26;;;;;;;4.60;2.20;;;3.90;99.90;;;;;;4921481;29;20189;-84
2023/11/25 12:05:53;;;;;;;4.87;1.70;;;3.90;99.90;;;;;;4921261;29;20196;-85
2023/11/25 12:08:20;;;;;;;3.77;1.47;;;3.90;99.90;;;;;;4920753;29;20194;-86
2023/11/25 12:10:47;;;;;;;6.57;1.80;;;4.00;99.90;;;;;;4920871;29;20200;-84
2023/11/25 12:13:28;;;;;;;5.03;1.70;;;4.00;99.90;;;;;;4921004;29;20189;-85
2023/11/25 12:15:58;;;;;;;3.10;1.57;;;4.00;99.90;;;;;;4937940;29;20190;-86
2023/11/25 12:18:34;;;;;;;5.73;1.70;;;4.10;99.90;;;;;;4921208;29;20328;-85
2023/11/25 12:21:01;;;;;;;4.93;2.17;;;4.10;99.90;;;;;;4920988;29;20205;-84
2023/11/25 12:23:28;;;;;;;6.20;2.10;;;4.20;99.90;;;;;;4920891;29;20202;-86
2023/11/25 12:25:56;;;;;;;4.60;2.17;;;4.20;99.90;;;;;;4920376;29;20609;-84
2023/11/25 12:28:23;;;;;;;5.50;1.60;;;4.20;99.90;;;;;;4921041;29;20205;-84
2023/11/25 12:30:51;;;;;;;7.47;1.97;;;4.20;99.90;;;;;;4920686;29;20189;-84
2023/11/25 12:33:17;;;;;;;6.17;2.10;;;4.30;99.90;;;;;;4920816;29;20197;-87
2023/11/25 12:35:43;;;;;;;4.03;1.93;;;4.30;99.90;;;;;;4937905;29;20189;-86
2023/11/25 12:38:10;;;;;;;10.13;2.37;;;4.30;99.90;;;;;;4920760;29;20222;-86
2023/11/25 12:40:37;;;;;;;9.33;1.90;;;4.30;99.90;;;;;;4920576;29;20208;-87
2023/11/25 12:43:08;;;;;;;2.93;2.00;;;4.30;99.90;;;;;;4937695;29;20216;-85
2023/11/25 12:45:41;;;;;;;5.03;2.10;;;4.30;99.90;;;;;;4920129;29;20186;-85
2023/11/25 12:48:09;;;;;;;6.33;2.50;;;4.30;99.90;;;;;;4912988;29;20194;-85
2023/11/25 12:50:55;;;;;;;7.53;2.80;;;4.40;99.90;;;;;;4937514;29;20222;-85
2023/11/25 12:53:21;;;;;;;8.30;3.20;;;4.40;99.90;;;;;;4933195;29;20186;-83
2023/11/25 12:55:50;;;;;;;7.53;2.27;;;4.50;99.90;;;;;;4919556;29;20529;-84
2023/11/25 12:58:18;;;;;;;10.07;3.73;;;4.50;99.90;;;;;;4917827;29;20301;-86